Time;durP1;ratioP1;P1;durP2;ratioP2;P2;SDS_P1;SDS_P2;PMS_P1;PMS_P2;Temp;Humidity;BMP_temperature;BMP_pressure;BME280_temperature;BME280_humidity;BME280_pressure;Samples;Min_cycle;Max_cycle;Signal;HPM_P1;HPM_P2
2023/11/06 00:00:43;;;;;;;4.03;1.88;;;;;;;7.61;89.27;97446.63;5045100;28;20051;-69
2023/11/06 00:03:08;;;;;;;2.00;1.85;;;;;;;7.60;89.17;97445.81;5045082;28;20086;-69
2023/11/06 00:05:36;;;;;;;3.22;1.63;;;;;;;7.60;89.43;97448.41;5044784;28;20045;-70
2023/11/06 00:08:02;;;;;;;1.90;1.73;;;;;;;7.62;89.27;97450.91;5044887;28;20073;-69
2023/11/06 00:10:28;;;;;;;0.90;0.90;;;;;;;7.56;89.57;97449.41;5027173;28;20028;-71
2023/11/06 00:12:53;;;;;;;5.35;2.28;;;;;;;7.49;89.46;97450.59;5045102;28;20465;-70
2023/11/06 00:15:20;;;;;;;2.58;2.30;;;;;;;7.50;90.08;97454.84;5045016;28;20026;-70
2023/11/06 00:17:46;;;;;;;1.58;1.48;;;;;;;7.48;90.03;97451.50;5044594;28;20040;-71
2023/11/06 00:20:11;;;;;;;2.45;2.25;;;;;;;7.44;90.34;97449.03;5044929;28;20495;-69
2023/11/06 00:22:40;;;;;;;2.25;2.08;;;;;;;7.40;90.37;97460.41;5044702;28;20025;-69
2023/11/06 00:25:05;;;;;;;1.73;1.58;;;;;;;7.40;90.76;97464.72;5044692;28;20025;-68
2023/11/06 00:27:31;;;;;;;2.55;1.75;;;;;;;7.35;90.83;97454.59;5044620;28;20049;-69
2023/11/06 00:29:57;;;;;;;1.70;1.60;;;;;;;7.41;90.73;97469.81;5044684;28;20025;-69
2023/11/06 00:32:22;;;;;;;1.70;1.30;;;;;;;7.40;90.95;97469.88;5026783;28;20470;-70
2023/11/06 00:34:47;;;;;;;2.10;1.95;;;;;;;7.41;91.30;97472.41;5044655;28;20056;-69
2023/11/06 00:37:13;;;;;;;2.03;1.55;;;;;;;7.39;91.12;97473.38;5046376;28;20029;-69
2023/11/06 00:39:38;;;;;;;2.08;1.50;;;;;;;7.36;91.62;97473.53;5048727;28;20025;-70
2023/11/06 00:42:04;;;;;;;2.85;2.05;;;;;;;7.25;91.92;97455.91;5048720;28;20048;-71
2023/11/06 00:44:30;;;;;;;1.40;1.23;;;;;;;7.33;91.85;97469.34;5048807;28;20029;-72
2023/11/06 00:46:55;;;;;;;3.20;2.40;;;;;;;7.31;91.96;97471.97;5048457;28;20045;-71
2023/11/06 00:49:21;;;;;;;2.13;1.30;;;;;;;7.35;91.91;97466.69;5048589;28;20025;-72
2023/11/06 00:51:47;;;;;;;1.00;0.90;;;;;;;7.36;92.27;97476.09;5048497;28;20022;-72
2023/11/06 00:54:14;;;;;;;1.83;1.67;;;;;;;7.37;92.13;97478.63;5048338;28;20482;-71
2023/11/06 00:56:40;;;;;;;3.78;2.13;;;;;;;7.32;92.30;97481.41;5048777;28;20036;-72
2023/11/06 00:59:05;;;;;;;1.23;1.13;;;;;;;7.35;92.69;97483.00;5047071;28;20025;-71
2023/11/06 01:01:31;;;;;;;1.45;1.30;;;;;;;7.31;92.67;97479.72;5048107;28;20022;-71
2023/11/06 01:03:57;;;;;;;4.55;2.28;;;;;;;7.29;92.97;97484.09;5048273;28;20100;-71
2023/11/06 01:06:24;;;;;;;5.80;2.10;;;;;;;7.28;92.88;97482.44;5047966;28;20033;-70
2023/11/06 01:08:49;;;;;;;0.85;0.80;;;;;;;7.33;92.78;97479.66;5048254;28;20052;-70
2023/11/06 01:11:15;;;;;;;1.33;1.23;;;;;;;7.29;92.72;97478.94;5048013;28;20013;-70
2023/11/06 01:13:40;;;;;;;0.85;0.82;;;;;;;7.29;92.78;97484.09;5048036;28;20030;-70
2023/11/06 01:16:06;;;;;;;0.85;0.85;;;;;;;7.28;92.50;97479.00;5030038;28;20028;-69
2023/11/06 01:18:31;;;;;;;1.50;1.40;;;;;;;7.31;92.67;97490.06;5048003;28;20028;-70
2023/11/06 01:20:57;;;;;;;5.53;1.48;;;;;;;7.29;92.61;97491.00;5048107;28;20022;-69
2023/11/06 01:23:22;;;;;;;1.33;1.20;;;;;;;7.28;92.69;97492.75;5047703;28;20033;-70
2023/11/06 01:25:50;;;;;;;2.25;1.58;;;;;;;7.32;92.93;97493.44;5047959;28;20443;-69
2023/11/06 01:28:15;;;;;;;2.55;2.30;;;;;;;7.27;93.16;97495.38;5047870;28;20048;-69
2023/11/06 01:30:41;;;;;;;1.90;1.58;;;;;;;7.29;93.57;97506.47;5047958;28;20017;-69
2023/11/06 01:33:06;;;;;;;5.65;2.33;;;;;;;7.29;93.64;97503.91;5047966;28;20093;-70
2023/11/06 01:35:32;;;;;;;2.88;2.22;;;;;;;7.35;93.50;97508.81;5046483;28;20031;-70
2023/11/06 01:37:58;;;;;;;0.93;0.75;;;;;;;7.37;93.39;97496.69;5047966;28;20026;-70
2023/11/06 01:40:24;;;;;;;1.58;1.48;;;;;;;7.30;93.64;97501.25;5047604;28;20029;-70
2023/11/06 01:42:53;;;;;;;5.80;2.13;;;;;;;7.34;93.82;97509.72;5047790;28;20105;-70
2023/11/06 01:45:18;;;;;;;3.50;2.25;;;;;;;7.28;94.13;97517.72;5047541;28;20021;-70
2023/11/06 01:47:44;;;;;;;1.38;1.27;;;;;;;7.36;93.79;97526.00;5029287;28;20032;-70
2023/11/06 01:50:11;;;;;;;2.25;1.13;;;;;;;7.38;93.94;97528.50;5045667;28;20029;-70
2023/11/06 01:52:37;;;;;;;1.20;0.88;;;;;;;7.38;93.86;97519.00;5047581;28;20025;-70
2023/11/06 01:55:02;;;;;;;3.88;2.40;;;;;;;7.41;93.58;97529.19;5047367;28;20097;-69
2023/11/06 01:57:28;;;;;;;1.98;1.85;;;;;;;7.38;94.15;97531.09;5047192;28;20022;-70
2023/11/06 01:59:55;;;;;;;1.45;1.30;;;;;;;7.41;93.87;97536.13;5047118;28;20025;-70
2023/11/06 02:02:23;;;;;;;2.08;1.33;;;;;;;7.43;93.83;97544.63;5047138;28;20040;-69
2023/11/06 02:04:49;;;;;;;2.00;1.55;;;;;;;7.37;94.11;97550.88;5047307;28;20022;-70
2023/11/06 02:07:17;;;;;;;1.17;1.13;;;;;;;7.38;94.04;97534.47;5047153;28;20038;-70
2023/11/06 02:09:43;;;;;;;2.60;2.25;;;;;;;7.35;94.03;97541.53;5047155;28;20022;-69
2023/11/06 02:12:09;;;;;;;5.07;2.25;;;;;;;7.35;94.24;97547.50;5047455;28;20022;-69
2023/11/06 02:14:50;;;;;;;1.75;1.48;;;;;;;7.39;94.39;97549.09;5046997;28;20030;-68
2023/11/06 02:17:16;;;;;;;3.92;2.65;;;;;;;7.42;94.14;97553.28;5046872;28;20029;-69
2023/11/06 02:19:41;;;;;;;4.55;2.90;;;;;;;7.37;94.33;97548.31;5046938;28;20032;-69
2023/11/06 02:22:09;;;;;;;3.47;2.05;;;;;;;7.46;94.33;97561.75;5046821;28;20049;-69
2023/11/06 02:24:36;;;;;;;3.30;2.63;;;;;;;7.48;94.12;97559.91;5045481;28;20088;-68
2023/11/06 02:27:02;;;;;;;2.58;2.38;;;;;;;7.49;93.60;97559.03;5046780;28;20103;-68
2023/11/06 02:29:27;;;;;;;2.42;1.92;;;;;;;7.49;93.86;97566.78;5046856;28;20363;-68
2023/11/06 02:31:53;;;;;;;3.33;2.20;;;;;;;7.46;93.81;97561.75;5028760;28;20021;-68
2023/11/06 02:34:18;;;;;;;1.38;1.08;;;;;;;7.47;93.90;97577.16;5028524;28;20497;-69
2023/11/06 02:36:44;;;;;;;2.05;1.85;;;;;;;7.43;93.78;97568.69;5046715;28;20025;-69
2023/11/06 02:39:10;;;;;;;1.05;1.05;;;;;;;7.50;93.82;97565.84;5046638;28;20029;-69
2023/11/06 02:41:35;;;;;;;2.40;1.95;;;;;;;7.45;94.03;97571.22;5046623;28;20017;-69
2023/11/06 02:44:01;;;;;;;1.30;1.02;;;;;;;7.46;93.96;97575.47;5046788;28;20033;-70
2023/11/06 02:46:27;;;;;;;5.25;2.65;;;;;;;7.48;94.11;97580.56;5046280;28;20030;-69
2023/11/06 02:48:53;;;;;;;3.03;2.80;;;;;;;7.51;94.11;97586.44;5046557;28;20026;-69
2023/11/06 02:51:18;;;;;;;3.30;2.38;;;;;;;7.50;94.13;97594.25;5046533;28;20025;-70
2023/11/06 02:53:43;;;;;;;3.45;3.15;;;;;;;7.52;94.27;97597.63;5046519;28;20051;-70
2023/11/06 02:56:09;;;;;;;3.17;2.35;;;;;;;7.57;94.06;97593.13;5046290;28;20022;-69
2023/11/06 02:58:34;;;;;;;4.07;2.22;;;;;;;7.65;94.04;97600.53;5046288;28;20017;-69
2023/11/06 03:00:59;;;;;;;4.85;2.42;;;;;;;7.68;93.90;97598.66;5046102;28;20029;-70
2023/11/06 03:03:25;;;;;;;3.30;2.15;;;;;;;7.68;93.95;97590.91;5046100;28;20471;-70
2023/11/06 03:05:50;;;;;;;3.92;2.13;;;;;;;7.72;93.63;97601.09;5046186;28;20089;-71
2023/11/06 03:08:16;;;;;;;6.00;3.00;;;;;;;7.76;93.55;97611.25;5045973;28;20103;-70
2023/11/06 03:10:42;;;;;;;2.72;1.92;;;;;;;7.78;93.65;97606.03;5028238;28;20229;-69
2023/11/06 03:13:07;;;;;;;5.50;2.92;;;;;;;7.77;93.31;97602.59;5046033;28;20036;-69
2023/11/06 03:15:34;;;;;;;3.20;1.85;;;;;;;7.81;93.39;97617.06;5027928;28;20025;-69
2023/11/06 03:17:59;;;;;;;1.95;1.80;;;;;;;7.78;93.13;97606.84;5045552;28;20435;-69
2023/11/06 03:20:24;;;;;;;4.35;1.85;;;;;;;7.80;92.93;97606.78;5045834;28;20505;-70
2023/11/06 03:22:50;;;;;;;2.53;1.75;;;;;;;7.78;92.82;97618.94;5045865;28;20033;-70
2023/11/06 03:25:15;;;;;;;3.53;2.22;;;;;;;7.70;92.57;97616.66;5045986;28;20515;-71
2023/11/06 03:27:40;;;;;;;5.63;2.63;;;;;;;7.65;92.74;97619.44;5045918;28;20085;-72
2023/11/06 03:30:06;;;;;;;8.27;3.28;;;;;;;7.55;92.97;97618.16;5045559;28;20021;-72
2023/11/06 03:32:32;;;;;;;3.50;2.17;;;;;;;7.55;92.85;97623.31;5045475;28;20089;-72
2023/11/06 03:34:57;;;;;;;4.60;1.95;;;;;;;7.53;93.08;97630.25;5045606;28;20127;-71
2023/11/06 03:37:23;;;;;;;5.03;2.13;;;;;;;7.50;93.20;97631.25;5044269;28;20026;-71
2023/11/06 03:39:49;;;;;;;4.35;3.05;;;;;;;7.50;93.13;97638.13;5027770;28;20043;-71
2023/11/06 03:42:14;;;;;;;2.80;2.10;;;;;;;7.47;93.18;97633.09;5045484;28;20028;-71
2023/11/06 03:44:40;;;;;;;1.90;1.80;;;;;;;7.48;93.28;97639.94;5045408;28;20022;-72
2023/11/06 03:47:05;;;;;;;3.00;2.70;;;;;;;7.50;93.40;97651.03;5045448;28;20077;-71
2023/11/06 03:49:30;;;;;;;9.93;2.90;;;;;;;7.50;93.43;97641.56;5045599;28;20060;-71
2023/11/06 03:51:56;;;;;;;3.80;2.55;;;;;;;7.51;92.87;97650.13;5045283;28;20022;-72
2023/11/06 03:54:21;;;;;;;2.35;2.00;;;;;;;7.48;93.14;97653.69;5045320;28;20077;-71
2023/11/06 03:56:47;;;;;;;2.53;2.13;;;;;;;7.49;93.27;97646.78;5045291;28;20120;-71
2023/11/06 03:59:12;;;;;;;4.38;2.33;;;;;;;7.47;93.45;97652.03;5045397;28;20052;-72
2023/11/06 04:01:38;;;;;;;2.42;2.20;;;;;;;7.47;93.53;97649.44;5045065;28;20025;-71
2023/11/06 04:04:04;;;;;;;2.38;2.20;;;;;;;7.46;93.35;97650.31;5045201;28;20033;-70
2023/11/06 04:06:30;;;;;;;2.55;2.35;;;;;;;7.46;93.28;97655.47;5044966;28;20033;-72
2023/11/06 04:08:56;;;;;;;2.67;1.92;;;;;;;7.44;93.28;97657.31;5027299;28;20056;-72
2023/11/06 04:11:21;;;;;;;3.28;2.75;;;;;;;7.45;93.24;97656.41;5044847;28;20021;-71
2023/11/06 04:13:47;;;;;;;3.40;2.13;;;;;;;7.44;93.32;97658.13;5044947;28;20100;-71
2023/11/06 04:16:14;;;;;;;5.40;3.53;;;;;;;7.41;93.30;97658.25;5044962;28;20083;-71
2023/11/06 04:18:40;;;;;;;3.55;2.35;;;;;;;7.38;93.31;97650.63;5044993;28;20568;-71
2023/11/06 04:21:06;;;;;;;3.42;2.35;;;;;;;7.41;93.30;97657.44;5044861;28;20033;-71
2023/11/06 04:23:31;;;;;;;2.25;1.45;;;;;;;7.39;93.42;97662.66;5027081;28;20049;-71
2023/11/06 04:25:57;;;;;;;3.58;2.60;;;;;;;7.34;93.39;97656.81;5044802;28;20029;-71
2023/11/06 04:28:22;;;;;;;2.63;2.42;;;;;;;7.35;93.59;97658.50;5044778;28;20030;-71
2023/11/06 04:30:48;;;;;;;3.78;2.58;;;;;;;7.38;93.52;97666.13;5026921;28;20014;-71
2023/11/06 04:33:13;;;;;;;3.65;3.28;;;;;;;7.41;93.73;97666.00;5043344;28;20036;-71
2023/11/06 04:35:38;;;;;;;1.63;1.52;;;;;;;7.42;93.58;97669.44;5044697;28;20049;-71
2023/11/06 04:38:04;;;;;;;7.00;2.58;;;;;;;7.42;93.68;97667.69;5044649;28;20021;-71
2023/11/06 04:40:29;;;;;;;1.55;1.45;;;;;;;7.50;93.74;97669.13;5044721;28;20018;-71
2023/11/06 04:42:55;;;;;;;2.97;2.50;;;;;;;7.55;93.73;97670.63;5045001;28;20028;-70
2023/11/06 04:45:20;;;;;;;2.35;1.95;;;;;;;7.53;93.77;97671.56;5026738;28;20045;-71
2023/11/06 04:47:46;;;;;;;2.90;2.30;;;;;;;7.52;93.55;97667.31;5044690;28;20026;-71
2023/11/06 04:50:12;;;;;;;1.67;1.58;;;;;;;7.52;93.76;97677.66;5026802;28;20092;-71
2023/11/06 04:52:38;;;;;;;3.55;2.85;;;;;;;7.48;93.84;97668.31;5026957;28;20433;-72
2023/11/06 04:55:05;;;;;;;3.75;2.30;;;;;;;7.47;93.90;97671.81;5044543;28;20057;-72
2023/11/06 04:57:30;;;;;;;4.68;2.63;;;;;;;7.43;94.15;97669.38;5044611;28;20025;-72
2023/11/06 04:59:56;;;;;;;4.90;2.67;;;;;;;7.30;93.94;97656.09;5044510;28;20036;-73
2023/11/06 05:02:21;;;;;;;2.70;2.50;;;;;;;7.38;93.89;97673.84;5044227;28;20486;-73
2023/11/06 05:04:47;;;;;;;3.38;2.65;;;;;;;7.36;94.00;97678.25;5044322;28;20036;-72
2023/11/06 05:07:12;;;;;;;3.15;2.13;;;;;;;7.34;94.19;97685.22;5044192;28;20045;-72
2023/11/06 05:09:38;;;;;;;6.82;2.85;;;;;;;7.30;93.99;97688.84;5044371;28;20029;-73
2023/11/06 05:12:03;;;;;;;2.58;2.15;;;;;;;7.27;94.12;97687.19;5044369;28;20021;-74
2023/11/06 05:14:28;;;;;;;6.85;2.30;;;;;;;7.24;94.12;97686.47;5044084;28;20041;-73
2023/11/06 05:16:54;;;;;;;10.10;3.30;;;;;;;7.27;93.96;97691.50;5044168;28;20118;-75
2023/11/06 05:19:20;;;;;;;2.95;1.65;;;;;;;7.27;94.22;97697.50;5044463;28;20028;-73
2023/11/06 05:21:46;;;;;;;2.08;1.30;;;;;;;7.23;94.40;97690.81;5044315;28;20029;-74
2023/11/06 05:24:12;;;;;;;1.50;1.38;;;;;;;7.24;94.27;97702.78;5027989;28;20029;-74
2023/11/06 05:26:38;;;;;;;3.90;1.92;;;;;;;7.18;94.54;97693.56;5046887;28;20183;-73
2023/11/06 05:29:04;;;;;;;1.73;1.15;;;;;;;7.19;94.82;97705.56;5048026;28;20288;-73
2023/11/06 05:31:30;;;;;;;3.10;2.80;;;;;;;7.12;95.13;97703.28;5030167;28;20085;-72
2023/11/06 05:33:55;;;;;;;2.00;1.85;;;;;;;7.15;95.14;97709.16;5047816;28;20402;-73
2023/11/06 05:36:21;;;;;;;1.48;1.42;;;;;;;7.16;95.12;97713.41;5029934;28;20045;-72
2023/11/06 05:38:46;;;;;;;3.88;1.33;;;;;;;7.13;95.50;97716.13;5029822;28;20071;-73
2023/11/06 05:41:12;;;;;;;2.28;1.63;;;;;;;7.11;95.67;97719.66;5047792;28;20085;-72
2023/11/06 05:43:38;;;;;;;1.25;0.82;;;;;;;7.13;95.79;97721.28;5029698;28;20075;-73
2023/11/06 05:46:05;;;;;;;1.90;1.80;;;;;;;7.11;95.99;97723.06;5047796;28;20052;-72
2023/11/06 05:48:32;;;;;;;2.45;2.05;;;;;;;7.03;96.37;97717.34;5047590;28;20022;-72
2023/11/06 05:50:58;;;;;;;1.58;1.48;;;;;;;7.05;96.61;97728.44;5029921;28;20029;-72
2023/11/06 05:53:24;;;;;;;3.38;3.08;;;;;;;7.05;96.88;97737.03;5047471;28;20025;-73
2023/11/06 05:55:49;;;;;;;1.20;1.20;;;;;;;7.10;96.88;97731.72;5047450;28;20044;-73
2023/11/06 05:58:15;;;;;;;4.07;2.50;;;;;;;7.14;97.01;97735.03;5047142;28;20021;-72
2023/11/06 06:00:40;;;;;;;4.80;3.95;;;;;;;7.08;96.65;97718.00;5047605;28;20526;-72
2023/11/06 06:03:07;;;;;;;1.38;1.23;;;;;;;7.16;96.78;97736.63;5047459;28;20025;-72
2023/11/06 06:05:32;;;;;;;4.35;2.15;;;;;;;7.21;96.89;97739.03;5029748;28;20108;-72
2023/11/06 06:07:57;;;;;;;1.98;1.80;;;;;;;7.06;96.68;97717.25;5047308;28;20054;-72
2023/11/06 06:10:23;;;;;;;3.13;2.83;;;;;;;7.22;96.83;97753.63;5047450;28;20044;-72
2023/11/06 06:12:48;;;;;;;3.78;2.58;;;;;;;7.23;97.08;97755.31;5046143;28;20032;-71
2023/11/06 06:15:13;;;;;;;4.03;2.55;;;;;;;7.28;96.84;97755.13;5047478;28;20036;-72
2023/11/06 06:17:40;;;;;;;3.58;3.28;;;;;;;7.30;96.85;97753.34;5046002;28;20505;-72
2023/11/06 06:20:15;;;;;;;5.38;3.67;;;;;;;7.35;96.67;97756.56;5047097;28;20030;-72
2023/11/06 06:22:41;;;;;;;2.47;1.90;;;;;;;7.41;96.53;97766.66;5029574;28;20026;-72
2023/11/06 06:25:08;;;;;;;3.88;2.60;;;;;;;7.42;96.46;97770.09;5047153;28;20033;-73
2023/11/06 06:27:37;;;;;;;4.10;2.90;;;;;;;7.42;96.29;97772.69;5045578;28;20029;-72
2023/11/06 06:30:06;;;;;;;3.42;1.58;;;;;;;7.44;96.02;97776.88;5046978;28;20021;-69
2023/11/06 06:32:32;;;;;;;4.93;2.35;;;;;;;7.42;95.62;97772.69;5046713;28;20077;-72
2023/11/06 06:34:59;;;;;;;4.15;2.72;;;;;;;7.40;95.82;97770.16;5028630;28;20045;-71
2023/11/06 06:37:24;;;;;;;4.88;2.75;;;;;;;7.39;96.06;97777.97;5047043;28;20025;-72
2023/11/06 06:39:49;;;;;;;4.22;3.20;;;;;;;7.39;95.68;97778.81;5028804;28;20032;-71
2023/11/06 06:42:17;;;;;;;2.70;2.33;;;;;;;7.38;95.70;97782.28;5046976;28;20075;-72
2023/11/06 06:44:43;;;;;;;2.75;2.17;;;;;;;7.39;95.79;97802.03;5028683;28;20025;-71
2023/11/06 06:47:08;;;;;;;1.98;1.80;;;;;;;7.36;96.34;97799.56;5046994;28;20028;-72
2023/11/06 06:49:39;;;;;;;2.50;2.30;;;;;;;7.35;96.39;97799.63;5046555;28;20108;-73
2023/11/06 06:52:07;;;;;;;3.78;2.35;;;;;;;7.29;96.30;97804.13;5046624;28;20018;-72
2023/11/06 06:54:33;;;;;;;1.75;1.35;;;;;;;7.35;96.24;97809.97;5046717;28;20040;-72
2023/11/06 06:56:58;;;;;;;6.15;3.58;;;;;;;7.33;95.97;97815.19;5046594;28;20017;-72
2023/11/06 06:59:26;;;;;;;8.57;3.00;;;;;;;7.33;96.01;97815.19;5046558;28;20021;-73
2023/11/06 07:01:51;;;;;;;7.65;2.80;;;;;;;7.28;96.25;97802.44;5028255;28;20017;-72
2023/11/06 07:04:17;;;;;;;3.47;2.75;;;;;;;7.30;96.56;97818.69;5046512;28;20036;-73
2023/11/06 07:06:42;;;;;;;7.90;3.05;;;;;;;7.30;96.83;97810.13;5028333;28;20057;-73
2023/11/06 07:09:08;;;;;;;1.42;1.30;;;;;;;7.33;96.98;97812.59;5046308;28;20036;-73
2023/11/06 07:11:34;;;;;;;4.93;2.33;;;;;;;7.32;96.99;97809.16;5046360;28;20049;-72
2023/11/06 07:13:59;;;;;;;1.52;1.42;;;;;;;7.40;97.10;97821.78;5046321;28;20032;-73
2023/11/06 07:16:25;;;;;;;2.80;2.00;;;;;;;7.42;97.28;97820.00;5046112;28;20021;-73
2023/11/06 07:18:50;;;;;;;5.72;3.13;;;;;;;7.41;97.17;97812.31;5045963;28;20051;-72
2023/11/06 07:21:17;;;;;;;1.45;1.10;;;;;;;7.55;96.67;97829.84;5046082;28;20048;-72
2023/11/06 07:23:43;;;;;;;1.70;1.60;;;;;;;7.52;96.55;97817.91;5046174;28;20032;-72
2023/11/06 07:26:09;;;;;;;2.45;2.22;;;;;;;7.51;96.85;97825.69;5045865;28;20049;-72
2023/11/06 07:28:34;;;;;;;2.42;2.22;;;;;;;7.50;96.93;97827.44;5045862;28;20528;-71
2023/11/06 07:30:59;;;;;;;1.70;1.60;;;;;;;7.53;96.89;97826.47;5045978;28;20025;-72
2023/11/06 07:33:25;;;;;;;3.38;2.95;;;;;;;7.54;96.69;97829.00;5044305;28;20022;-73
2023/11/06 07:35:51;;;;;;;2.53;2.05;;;;;;;7.56;96.88;97826.38;5045701;28;20021;-72
2023/11/06 07:38:17;;;;;;;6.35;4.05;;;;;;;7.58;96.69;97824.56;5045540;28;20026;-72
2023/11/06 07:40:42;;;;;;;3.58;2.83;;;;;;;7.52;97.08;97836.00;5045562;28;20021;-72
2023/11/06 07:43:08;;;;;;;3.45;2.95;;;;;;;7.52;97.47;97830.81;5045585;28;20073;-73
2023/11/06 07:45:34;;;;;;;3.00;1.83;;;;;;;7.52;97.54;97829.97;5045439;28;20025;-72
2023/11/06 07:48:02;;;;;;;7.35;4.30;;;;;;;7.56;97.64;97828.94;5045011;28;20035;-73
2023/11/06 07:50:30;;;;;;;6.85;4.13;;;;;;;7.62;97.85;97831.28;5045520;28;20422;-72
2023/11/06 07:52:56;;;;;;;5.03;3.90;;;;;;;7.69;97.82;97837.06;5045618;28;20088;-72
2023/11/06 07:55:22;;;;;;;6.43;3.72;;;;;;;7.69;97.87;97834.50;5045445;28;20029;-72
2023/11/06 07:57:49;;;;;;;4.15;3.25;;;;;;;7.77;97.73;97840.22;5045531;28;20029;-73
2023/11/06 08:00:15;;;;;;;9.77;4.47;;;;;;;7.77;97.82;97845.38;5027443;28;20033;-73
2023/11/06 08:02:41;;;;;;;5.85;2.45;;;;;;;7.81;97.69;97848.69;5045405;28;20103;-71
2023/11/06 08:05:08;;;;;;;7.78;4.72;;;;;;;7.85;97.25;97847.66;5045427;28;20041;-71
2023/11/06 08:07:38;;;;;;;2.22;2.05;;;;;;;7.87;97.53;97845.03;5045117;28;20516;-73
2023/11/06 08:10:08;;;;;;;5.20;3.60;;;;;;;7.94;96.69;97852.47;5043933;28;20040;-71
2023/11/06 08:12:34;;;;;;;2.47;2.35;;;;;;;7.87;97.35;97860.50;5045455;28;20029;-72
2023/11/06 08:14:59;;;;;;;5.97;4.28;;;;;;;7.87;97.85;97860.50;5045161;28;20086;-72
2023/11/06 08:17:25;;;;;;;5.25;3.08;;;;;;;7.88;97.81;97850.13;5044798;28;20101;-72
2023/11/06 08:19:52;;;;;;;8.05;3.85;;;;;;;7.90;98.32;97861.25;5044987;28;20407;-71
2023/11/06 08:22:20;;;;;;;7.68;5.50;;;;;;;7.96;98.55;97856.72;5045079;28;20033;-72
2023/11/06 08:24:45;;;;;;;7.85;6.05;;;;;;;8.00;98.50;97855.72;5044949;28;20028;-72
2023/11/06 08:27:10;;;;;;;8.23;4.03;;;;;;;8.11;97.87;97856.16;5044912;28;20044;-72
2023/11/06 08:29:41;;;;;;;7.10;2.88;;;;;;;8.13;98.09;97861.25;5044963;28;20025;-71
2023/11/06 08:32:06;;;;;;;5.22;3.38;;;;;;;8.06;98.01;97861.50;5043390;28;20045;-71
2023/11/06 08:34:32;;;;;;;11.07;5.47;;;;;;;8.12;97.53;97865.56;5045023;28;20029;-72
2023/11/06 08:36:58;;;;;;;7.78;4.45;;;;;;;8.08;98.16;97870.91;5045044;28;20028;-72
2023/11/06 08:39:23;;;;;;;4.28;2.58;;;;;;;8.12;98.25;97873.31;5044849;28;20083;-72
2023/11/06 08:41:49;;;;;;;3.80;3.47;;;;;;;8.13;98.25;97874.19;5044840;28;20033;-72
2023/11/06 08:44:14;;;;;;;5.43;4.55;;;;;;;8.21;97.79;97879.84;5027000;28;20093;-72
2023/11/06 08:46:41;;;;;;;1.63;1.52;;;;;;;8.29;97.45;97889.91;5044800;28;20056;-72
2023/11/06 08:49:06;;;;;;;16.83;6.05;;;;;;;8.22;98.09;97891.03;5044951;28;20044;-72
2023/11/06 08:51:32;;;;;;;10.65;2.28;;;;;;;8.30;97.33;97897.63;5027047;28;20025;-72
2023/11/06 08:53:58;;;;;;;7.47;3.25;;;;;;;8.24;98.18;97903.00;5044825;28;20025;-72
2023/11/06 08:56:24;;;;;;;5.88;2.35;;;;;;;8.45;96.88;97899.66;5026974;28;20505;-72
2023/11/06 08:58:50;;;;;;;3.92;2.53;;;;;;;8.39;96.81;97911.91;5047400;28;20021;-72
2023/11/06 09:01:15;;;;;;;3.42;2.92;;;;;;;8.35;97.62;97915.53;5030809;28;20502;-72
2023/11/06 09:03:41;;;;;;;1.95;1.85;;;;;;;8.38;98.19;97923.16;5048661;28;20036;-73
2023/11/06 09:06:08;;;;;;;9.88;5.13;;;;;;;8.40;98.23;97923.91;5048587;28;20384;-73
2023/11/06 09:08:33;;;;;;;5.38;4.28;;;;;;;8.41;98.34;97928.22;5048417;28;20071;-73
2023/11/06 09:10:59;;;;;;;2.65;1.65;;;;;;;8.50;98.65;97933.94;5047246;28;20490;-72
2023/11/06 09:13:27;;;;;;;11.10;5.50;;;;;;;8.52;98.83;97932.09;5047015;28;20085;-72
2023/11/06 09:15:52;;;;;;;5.72;4.05;;;;;;;8.62;98.48;97941.22;5048439;28;20032;-73
2023/11/06 09:18:19;;;;;;;3.25;2.78;;;;;;;8.76;97.39;97937.22;5048092;28;20049;-74
2023/11/06 09:20:48;;;;;;;2.10;1.95;;;;;;;8.72;97.46;97935.66;5048215;28;20021;-74
2023/11/06 09:23:13;;;;;;;8.73;5.15;;;;;;;8.68;97.71;97942.69;5030412;28;20071;-74
2023/11/06 09:25:39;;;;;;;4.80;1.58;;;;;;;8.77;97.20;97938.91;5030214;28;20025;-73
2023/11/06 09:28:04;;;;;;;2.85;2.65;;;;;;;8.77;97.02;97949.25;5048167;28;20025;-73
2023/11/06 09:30:30;;;;;;;2.78;2.40;;;;;;;8.83;96.14;97937.81;5046860;28;20014;-73
2023/11/06 09:32:55;;;;;;;6.95;3.17;;;;;;;8.84;95.52;97940.34;5047928;28;20406;-73
2023/11/06 09:35:22;;;;;;;3.55;2.97;;;;;;;8.79;96.11;97944.84;5030146;28;20025;-73
2023/11/06 09:37:48;;;;;;;7.90;3.47;;;;;;;8.74;96.66;97954.56;5048090;28;20025;-73
2023/11/06 09:40:20;;;;;;;4.05;2.47;;;;;;;8.89;95.80;97953.09;5047860;28;20032;-74
2023/11/06 09:42:46;;;;;;;8.68;4.85;;;;;;;8.92;94.92;97951.22;5047929;28;20026;-74
2023/11/06 09:45:11;;;;;;;1.95;1.85;;;;;;;8.77;96.34;97949.25;5029939;28;20029;-74
2023/11/06 09:47:59;;;;;;;5.78;4.32;;;;;;;8.81;96.24;97953.41;5029977;28;20026;-73
2023/11/06 09:50:26;;;;;;;7.32;4.25;;;;;;;8.78;96.39;97956.13;5029896;28;20024;-73
2023/11/06 09:52:55;;;;;;;9.13;4.68;;;;;;;8.83;96.40;97961.09;5029985;28;20021;-74
2023/11/06 09:55:21;;;;;;;6.05;4.68;;;;;;;8.84;95.87;97958.44;5047422;28;20026;-73
2023/11/06 09:57:51;;;;;;;6.05;3.45;;;;;;;8.80;96.39;97956.91;5047744;28;20032;-74
2023/11/06 10:00:17;;;;;;;1.55;1.45;;;;;;;8.74;96.94;97963.16;5047600;28;20108;-73
2023/11/06 10:02:43;;;;;;;4.28;3.45;;;;;;;8.83;97.20;97963.69;5047351;28;20520;-73
2023/11/06 10:05:16;;;;;;;8.48;3.90;;;;;;;8.92;96.28;97966.75;5047447;28;20045;-74
2023/11/06 10:07:45;;;;;;;1.50;1.33;;;;;;;8.99;95.25;97966.50;5047354;28;20038;-73
2023/11/06 10:10:15;;;;;;;9.15;5.57;;;;;;;8.88;96.15;97965.16;5046547;28;20025;-74
2023/11/06 10:12:40;;;;;;;2.22;1.83;;;;;;;8.92;96.03;97966.75;5047457;28;20022;-73
2023/11/06 10:15:06;;;;;;;1.55;1.45;;;;;;;8.93;95.93;97971.00;5047343;28;20109;-73
2023/11/06 10:17:37;;;;;;;2.60;1.67;;;;;;;8.96;95.95;97974.38;5029537;28;20018;-73
2023/11/06 10:20:16;;;;;;;5.03;3.20;;;;;;;8.97;96.18;97976.06;5030264;28;20036;-73
2023/11/06 10:22:54;;;;;;;3.63;2.92;;;;;;;9.20;95.66;97982.84;5047716;28;20378;-74
2023/11/06 10:25:30;;;;;;;2.85;2.50;;;;;;;9.10;95.96;97990.19;5047081;28;20079;-74
2023/11/06 10:27:56;;;;;;;8.90;4.00;;;;;;;9.09;95.68;97985.88;5029350;28;20018;-74
2023/11/06 10:30:23;;;;;;;4.85;3.78;;;;;;;9.12;96.14;97996.13;5045674;28;20048;-74
2023/11/06 10:32:48;;;;;;;6.50;4.38;;;;;;;9.13;96.59;97991.78;5046919;28;20076;-73
2023/11/06 10:35:15;;;;;;;4.75;2.75;;;;;;;9.25;95.38;97993.88;5046876;28;20028;-75
2023/11/06 10:37:46;;;;;;;6.15;3.90;;;;;;;9.20;95.37;97992.38;5047051;28;20025;-74
2023/11/06 10:40:13;;;;;;;2.15;1.90;;;;;;;9.22;94.67;97998.34;5046939;28;20641;-73
2023/11/06 10:42:43;;;;;;;2.58;1.90;;;;;;;9.18;95.31;98000.22;5046735;28;20072;-74
2023/11/06 10:45:14;;;;;;;7.65;5.82;;;;;;;9.16;95.42;98002.03;5046618;28;20025;-72
2023/11/06 10:47:46;;;;;;;8.93;5.63;;;;;;;9.17;96.12;98006.28;5046611;28;20032;-73
2023/11/06 10:50:23;;;;;;;0.88;0.85;;;;;;;9.40;95.03;98004.47;5045407;28;20369;-74
2023/11/06 10:52:54;;;;;;;2.63;1.80;;;;;;;9.26;95.14;97995.56;5046808;28;20108;-74
2023/11/06 10:55:22;;;;;;;3.38;3.08;;;;;;;9.34;95.36;98005.59;5028679;28;20045;-74
2023/11/06 10:57:52;;;;;;;9.75;6.28;;;;;;;9.40;95.33;98004.47;5045304;28;20025;-74
2023/11/06 11:00:20;;;;;;;8.48;6.25;;;;;;;9.49;95.14;97998.09;5028795;28;20018;-74
2023/11/06 11:02:49;;;;;;;3.97;3.58;;;;;;;9.47;95.13;97995.56;5046268;28;20021;-74
2023/11/06 11:05:17;;;;;;;7.25;4.35;;;;;;;9.63;95.01;98006.06;5045969;28;20086;-74
2023/11/06 11:07:43;;;;;;;8.40;3.97;;;;;;;9.66;94.76;98005.94;5046198;28;20076;-75
2023/11/06 11:10:12;;;;;;;6.88;4.32;;;;;;;9.67;95.11;98010.25;5046343;28;20025;-74
2023/11/06 11:12:38;;;;;;;11.07;2.45;;;;;;;9.82;93.80;98005.31;5028365;28;20036;-74
2023/11/06 11:15:05;;;;;;;6.40;4.63;;;;;;;9.81;93.86;98006.19;5046333;28;20034;-73
2023/11/06 11:17:31;;;;;;;9.60;4.28;;;;;;;9.78;94.62;98004.59;5045991;28;20026;-74
2023/11/06 11:20:01;;;;;;;6.15;3.10;;;;;;;9.89;94.49;98019.66;5046000;28;20025;-74
2023/11/06 11:22:31;;;;;;;1.73;1.40;;;;;;;9.95;94.05;98003.00;5045391;28;20047;-74
2023/11/06 11:24:58;;;;;;;8.10;4.28;;;;;;;9.95;93.50;98002.16;5028411;28;20535;-73
2023/11/06 11:27:27;;;;;;;9.95;4.72;;;;;;;9.95;93.12;98005.59;5045896;28;20520;-73
2023/11/06 11:29:52;;;;;;;4.57;3.10;;;;;;;9.96;93.42;98011.59;5045965;28;20520;-73
2023/11/06 11:32:20;;;;;;;4.28;2.53;;;;;;;10.06;91.89;98006.84;5045883;28;20025;-74
2023/11/06 11:34:46;;;;;;;4.68;3.33;;;;;;;9.95;92.04;98017.72;5045989;28;20049;-74
2023/11/06 11:37:27;;;;;;;3.03;2.35;;;;;;;9.97;92.79;98018.50;5027889;28;20385;-73